Time;durP1;ratioP1;P1;durP2;ratioP2;P2;SDS_P1;SDS_P2;PMS_P1;PMS_P2;Temp;Humidity;BMP_temperature;BMP_pressure;BME280_temperature;BME280_humidity;BME280_pressure;Samples;Min_cycle;Max_cycle;Signal;HPM_P1;HPM_P2
2021/11/16 00:00:07;;;;;;;19.77;13.60;;;;;;;5.18;92.40;101688.84;676856;29;1149;-52
2021/11/16 00:00:31;;;;;;;20.17;13.55;;;;;;;5.19;92.90;101690.63;680405;29;1288;-54
2021/11/16 00:00:53;;;;;;;22.23;14.27;;;;;;;5.18;93.15;101688.84;680205;29;1320;-55
2021/11/16 00:01:14;;;;;;;21.38;14.32;;;;;;;5.18;93.74;101683.66;679579;28;4671;-53
2021/11/16 00:01:39;;;;;;;19.92;13.20;;;;;;;5.18;93.75;101688.84;680664;28;1360;-52
2021/11/16 00:01:59;;;;;;;20.80;13.95;;;;;;;5.18;94.03;101686.25;679836;29;1144;-55
2021/11/16 00:02:20;;;;;;;22.17;14.40;;;;;;;5.20;93.95;101689.78;679811;28;1335;-56
2021/11/16 00:02:41;;;;;;;22.00;14.67;;;;;;;5.21;93.36;101683.78;679284;28;1541;-55
2021/11/16 00:03:01;;;;;;;20.40;14.60;;;;;;;5.22;92.71;101685.53;681145;29;1308;-55
2021/11/16 00:03:21;;;;;;;24.50;14.90;;;;;;;5.20;92.93;101688.06;678787;28;3367;-52
2021/11/16 00:03:42;;;;;;;25.50;15.57;;;;;;;5.22;92.83;101683.84;679310;28;2130;-56
2021/11/16 00:04:03;;;;;;;23.13;15.30;;;;;;;5.22;92.44;101682.94;678746;28;1368;-54
2021/11/16 00:04:23;;;;;;;22.95;14.82;;;;;;;5.25;91.98;101685.66;676766;28;4574;-52
2021/11/16 00:04:44;;;;;;;24.50;14.77;;;;;;;5.26;91.62;101687.38;678214;29;1426;-53
2021/11/16 00:05:05;;;;;;;23.58;15.13;;;;;;;5.25;91.31;101680.47;677039;29;1192;-52
2021/11/16 00:05:26;;;;;;;23.73;14.70;;;;;;;5.24;92.02;101683.88;678333;29;1930;-56
2021/11/16 00:05:46;;;;;;;23.23;14.63;;;;;;;5.23;91.80;101684.69;677331;28;1226;-55
2021/11/16 00:06:07;;;;;;;22.20;14.75;;;;;;;5.23;92.44;101687.28;680456;29;1416;-53
2021/11/16 00:06:27;;;;;;;21.20;14.37;;;;;;;5.21;93.06;101692.44;679826;29;1375;-53
2021/11/16 00:06:52;;;;;;;21.20;14.68;;;;;;;5.20;93.62;101682.88;676895;29;1360;-55
2021/11/16 00:07:12;;;;;;;21.08;14.80;;;;;;;5.19;93.54;101680.25;675846;28;4400;-55
2021/11/16 00:07:33;;;;;;;21.73;14.77;;;;;;;5.18;93.13;101687.16;676631;29;3403;-57
2021/11/16 00:07:56;;;;;;;21.58;14.15;;;;;;;5.20;93.27;101687.19;677210;29;1217;-54
2021/11/16 00:08:16;;;;;;;20.40;14.35;;;;;;;5.20;93.45;101682.00;675971;29;1471;-56
2021/11/16 00:08:37;;;;;;;21.93;14.67;;;;;;;5.19;93.44;101685.44;678268;29;1577;-53
2021/11/16 00:08:57;;;;;;;20.95;14.43;;;;;;;5.19;93.34;101691.50;680744;28;1623;-52
2021/11/16 00:09:18;;;;;;;21.60;14.17;;;;;;;5.20;93.54;101687.19;680696;29;1636;-56
2021/11/16 00:09:39;;;;;;;22.08;15.10;;;;;;;5.19;93.36;101688.91;680243;29;1243;-57
2021/11/16 00:09:59;;;;;;;21.67;14.57;;;;;;;5.19;93.41;101695.78;680281;28;3179;-54
2021/11/16 00:10:20;;;;;;;21.47;14.10;;;;;;;5.19;93.12;101686.34;679819;28;4411;-52
2021/11/16 00:10:40;;;;;;;20.97;14.23;;;;;;;5.18;92.93;101696.63;680195;28;1314;-55
2021/11/16 00:11:01;;;;;;;20.20;14.17;;;;;;;5.18;92.80;101689.75;680397;28;1269;-53
2021/11/16 00:11:21;;;;;;;19.73;13.87;;;;;;;5.18;93.06;101688.84;680004;28;1120;-52
2021/11/16 00:11:41;;;;;;;21.80;14.27;;;;;;;5.17;93.27;101687.09;679523;28;1160;-52
2021/11/16 00:12:02;;;;;;;21.10;14.13;;;;;;;5.18;93.09;101686.25;678916;28;1347;-53
2021/11/16 00:12:23;;;;;;;20.15;14.10;;;;;;;5.16;93.37;101691.38;677135;29;1209;-53
2021/11/16 00:12:43;;;;;;;20.83;13.83;;;;;;;5.17;93.39;101694.88;677245;29;1406;-52
2021/11/16 00:13:12;;;;;;;20.60;13.93;;;;;;;5.15;93.34;101694.84;679737;28;2486;-52
2021/11/16 00:13:33;;;;;;;22.52;14.25;;;;;;;5.15;93.09;101691.34;682809;28;5027;-52
2021/11/16 00:13:53;;;;;;;21.48;14.50;;;;;;;5.12;93.05;101692.13;682973;28;1485;-52
2021/11/16 00:14:15;;;;;;;22.40;15.03;;;;;;;5.11;93.22;101690.38;684293;28;1178;-56
2021/11/16 00:14:36;;;;;;;21.20;14.60;;;;;;;5.11;93.06;101690.38;683116;28;1474;-55
2021/11/16 00:14:56;;;;;;;22.52;14.48;;;;;;;5.10;93.49;101692.06;681204;28;1509;-53
2021/11/16 00:15:17;;;;;;;22.37;14.80;;;;;;;5.11;93.35;101693.84;680455;29;1537;-53
2021/11/16 00:15:43;;;;;;;20.65;14.63;;;;;;;5.12;93.97;101689.53;681142;29;1316;-53
2021/11/16 00:16:04;;;;;;;21.50;14.13;;;;;;;5.09;94.01;101690.28;679173;28;3094;-54
2021/11/16 00:16:26;;;;;;;21.27;14.32;;;;;;;5.09;94.39;101685.09;677814;28;4456;-56
2021/11/16 00:16:46;;;;;;;20.95;14.35;;;;;;;5.09;93.43;101690.28;680003;29;1984;-56
2021/11/16 00:17:07;;;;;;;21.25;14.55;;;;;;;5.10;93.35;101692.06;678464;29;1454;-57
2021/11/16 00:17:28;;;;;;;20.83;14.10;;;;;;;5.13;93.28;101698.19;677467;29;1348;-52
2021/11/16 00:17:48;;;;;;;21.20;13.97;;;;;;;5.13;93.56;101696.47;677978;29;1312;-56
2021/11/16 00:18:10;;;;;;;21.83;14.45;;;;;;;5.11;93.57;101687.78;677082;29;1328;-53
2021/11/16 00:18:31;;;;;;;21.27;14.00;;;;;;;5.11;93.59;101687.78;676830;29;1436;-52
2021/11/16 00:19:00;;;;;;;19.80;14.07;;;;;;;5.09;94.08;101685.09;678233;29;1348;-56
2021/11/16 00:19:21;;;;;;;20.27;13.48;;;;;;;5.07;93.95;101688.50;678928;28;4528;-53
2021/11/16 00:19:42;;;;;;;21.40;13.80;;;;;;;5.05;94.05;101682.38;679853;29;1316;-58
2021/11/16 00:20:07;;;;;;;20.70;13.68;;;;;;;5.02;93.39;101687.47;680039;28;1301;-53
2021/11/16 00:20:27;;;;;;;20.23;13.23;;;;;;;5.02;93.97;101682.28;680176;29;1251;-53
2021/11/16 00:20:47;;;;;;;19.70;13.17;;;;;;;5.02;94.41;101685.72;679869;28;2835;-52
2021/11/16 00:21:11;;;;;;;19.30;13.20;;;;;;;5.02;95.05;101677.97;680318;28;1374;-53
2021/11/16 00:21:31;;;;;;;20.50;13.77;;;;;;;5.02;94.24;101687.47;679563;29;1419;-55
2021/11/16 00:21:52;;;;;;;18.07;13.30;;;;;;;5.00;93.57;101682.22;680251;28;3199;-56
2021/11/16 00:22:17;;;;;;;18.03;12.73;;;;;;;5.00;93.59;101689.09;679656;28;4700;-53
2021/11/16 00:22:39;;;;;;;19.00;12.82;;;;;;;4.99;93.71;101675.28;683249;28;1178;-53
2021/11/16 00:23:00;;;;;;;19.65;13.32;;;;;;;5.00;93.72;101681.31;685377;28;1292;-53
2021/11/16 00:23:22;;;;;;;19.50;13.63;;;;;;;5.01;94.31;101676.22;685097;28;1204;-57
2021/11/16 00:23:42;;;;;;;19.45;13.32;;;;;;;5.01;95.30;101678.81;684785;28;1279;-56
2021/11/16 00:24:09;;;;;;;19.00;13.13;;;;;;;5.00;94.13;101678.72;685784;28;1368;-56
2021/11/16 00:24:45;;;;;;;19.48;13.52;;;;;;;4.98;92.82;101678.69;684741;28;1311;-55
2021/11/16 00:25:17;;;;;;;19.70;13.38;;;;;;;4.97;92.69;101682.13;680472;28;3290;-55
2021/11/16 00:25:38;;;;;;;19.98;13.63;;;;;;;4.98;93.68;101681.28;682018;28;5120;-54
2021/11/16 00:26:00;;;;;;;19.58;13.20;;;;;;;5.00;93.31;101681.31;682051;28;1580;-53
2021/11/16 00:26:21;;;;;;;20.23;13.20;;;;;;;5.00;94.13;101679.63;680439;29;1177;-54
2021/11/16 00:26:42;;;;;;;20.00;13.48;;;;;;;5.00;94.83;101674.44;680311;29;1217;-52
2021/11/16 00:27:06;;;;;;;20.60;14.02;;;;;;;5.02;94.38;101680.56;682590;28;1441;-56
2021/11/16 00:27:27;;;;;;;20.25;13.73;;;;;;;5.02;94.74;101677.97;678398;29;1471;-53
2021/11/16 00:27:48;;;;;;;19.60;13.53;;;;;;;5.05;94.19;101675.50;677003;29;3612;-54
2021/11/16 00:28:08;;;;;;;19.35;13.50;;;;;;;5.06;94.58;101679.81;675022;29;3815;-54
2021/11/16 00:28:29;;;;;;;19.45;13.27;;;;;;;5.05;94.08;101678.09;674593;29;4482;-54
2021/11/16 00:28:53;;;;;;;18.57;13.00;;;;;;;5.06;94.27;101673.78;675425;29;1240;-53
2021/11/16 00:29:14;;;;;;;18.48;13.25;;;;;;;5.07;94.42;101670.38;675164;29;1530;-54
2021/11/16 00:29:36;;;;;;;18.77;12.93;;;;;;;5.07;94.48;101671.22;679000;29;1445;-53
2021/11/16 00:29:56;;;;;;;19.88;12.88;;;;;;;5.06;94.28;101677.22;678495;29;1344;-56
2021/11/16 00:30:18;;;;;;;19.17;13.40;;;;;;;5.08;94.82;101672.09;677101;29;1419;-57
2021/11/16 00:30:39;;;;;;;20.13;13.40;;;;;;;5.08;94.72;101673.00;677434;29;1490;-55
2021/11/16 00:31:00;;;;;;;19.13;13.35;;;;;;;5.08;94.94;101667.81;677333;28;3439;-55
2021/11/16 00:31:21;;;;;;;18.57;12.80;;;;;;;5.08;95.22;101674.69;674024;29;4453;-53
2021/11/16 00:31:41;;;;;;;19.08;13.13;;;;;;;5.10;94.59;101675.63;675698;29;1364;-52
2021/11/16 00:32:02;;;;;;;18.80;13.37;;;;;;;5.09;94.65;101673.88;680440;28;1339;-52
2021/11/16 00:32:23;;;;;;;19.52;13.10;;;;;;;5.09;94.64;101685.09;682952;28;1318;-53
2021/11/16 00:32:43;;;;;;;18.60;13.00;;;;;;;5.09;94.39;101669.56;682740;28;1155;-53
2021/11/16 00:33:04;;;;;;;19.05;13.35;;;;;;;5.11;94.37;101674.81;680611;28;1366;-56
2021/11/16 00:33:27;;;;;;;17.53;12.20;;;;;;;5.11;94.65;101677.41;680967;28;1395;-52
2021/11/16 00:33:48;;;;;;;18.73;12.95;;;;;;;5.09;95.42;101677.34;681878;28;3535;-54
2021/11/16 00:34:09;;;;;;;19.20;13.15;;;;;;;5.09;95.66;101677.34;679842;29;4267;-55
2021/11/16 00:34:29;;;;;;;19.37;12.97;;;;;;;5.08;95.22;101683.38;681278;28;4351;-53
2021/11/16 00:34:50;;;;;;;20.10;12.77;;;;;;;5.06;94.93;101679.81;682029;28;1160;-55
2021/11/16 00:35:10;;;;;;;19.37;13.00;;;;;;;5.06;95.70;101676.38;682210;28;1371;-52
2021/11/16 00:35:31;;;;;;;19.13;13.07;;;;;;;5.03;95.80;101674.53;682931;28;1402;-53
2021/11/16 00:35:53;;;;;;;20.08;13.50;;;;;;;5.02;94.73;101677.09;683181;28;1362;-54
2021/11/16 00:36:15;;;;;;;20.48;13.35;;;;;;;5.01;94.64;101678.81;684266;28;1196;-54
2021/11/16 00:36:35;;;;;;;20.83;13.30;;;;;;;5.00;94.82;101674.44;679425;29;1498;-58
2021/11/16 00:36:55;;;;;;;19.50;13.20;;;;;;;5.01;94.31;101680.50;680051;28;3502;-53
2021/11/16 00:37:24;;;;;;;19.87;13.23;;;;;;;5.00;94.47;101679.63;679545;28;4352;-58
2021/11/16 00:37:44;;;;;;;20.45;13.73;;;;;;;5.00;95.05;101678.72;680679;28;1333;-56
2021/11/16 00:38:08;;;;;;;19.27;13.20;;;;;;;5.00;94.91;101679.63;680628;29;1288;-53
2021/11/16 00:38:29;;;;;;;18.55;12.48;;;;;;;5.00;94.89;101684.81;679352;29;1316;-55
2021/11/16 00:38:49;;;;;;;19.20;12.73;;;;;;;5.01;96.07;101676.22;680962;29;1547;-54
2021/11/16 00:39:11;;;;;;;19.90;13.37;;;;;;;4.99;96.11;101677.84;680584;29;1347;-52
2021/11/16 00:39:31;;;;;;;21.25;13.63;;;;;;;4.99;95.74;101675.28;679883;29;3899;-55
2021/11/16 00:39:55;;;;;;;21.27;13.80;;;;;;;4.98;96.07;101681.28;685438;28;4195;-55
2021/11/16 00:40:19;;;;;;;19.88;13.52;;;;;;;4.97;95.92;101679.53;684676;28;4510;-55
2021/11/16 00:40:41;;;;;;;19.85;13.23;;;;;;;5.00;95.91;101683.91;686640;28;1330;-53
2021/11/16 00:41:02;;;;;;;19.45;13.65;;;;;;;4.97;96.00;101676.94;685068;28;1342;-53
2021/11/16 00:41:23;;;;;;;19.85;13.63;;;;;;;4.97;95.91;101676.03;685054;28;1206;-53
2021/11/16 00:41:43;;;;;;;21.20;13.50;;;;;;;4.95;95.83;101681.19;683161;28;1259;-54
2021/11/16 00:42:04;;;;;;;20.20;13.53;;;;;;;4.94;95.84;101675.13;680647;28;1243;-54
2021/11/16 00:42:25;;;;;;;21.40;14.05;;;;;;;4.95;95.86;101682.03;682897;28;1466;-52
2021/11/16 00:42:48;;;;;;;20.38;13.52;;;;;;;4.94;95.64;101675.13;683152;28;3066;-55
2021/11/16 00:43:09;;;;;;;20.45;13.70;;;;;;;4.95;95.57;101678.59;683297;28;1186;-54
2021/11/16 00:43:29;;;;;;;21.83;13.70;;;;;;;4.96;95.25;101680.34;682339;28;4349;-57
2021/11/16 00:43:51;;;;;;;21.40;13.80;;;;;;;4.95;95.30;101673.41;681365;29;1272;-53
2021/11/16 00:44:11;;;;;;;19.83;13.50;;;;;;;4.96;95.05;101672.56;680913;28;1355;-55
2021/11/16 00:44:32;;;;;;;20.60;13.80;;;;;;;4.94;94.63;101680.31;681065;28;1243;-53
2021/11/16 00:44:53;;;;;;;20.87;13.83;;;;;;;4.93;94.25;101682.84;680957;29;1488;-54
2021/11/16 00:45:14;;;;;;;21.08;14.02;;;;;;;4.93;94.78;101677.66;680417;29;1936;-53
2021/11/16 00:45:43;;;;;;;20.27;13.82;;;;;;;4.92;94.68;101676.75;680443;29;1355;-55
2021/11/16 00:46:04;;;;;;;22.33;14.38;;;;;;;4.92;94.63;101671.56;680841;28;3676;-54
2021/11/16 00:46:24;;;;;;;21.02;14.20;;;;;;;4.91;94.39;101677.59;680899;28;4428;-54
2021/11/16 00:46:44;;;;;;;22.50;14.33;;;;;;;4.90;94.38;101682.72;680552;29;1513;-51
2021/11/16 00:47:07;;;;;;;21.57;13.73;;;;;;;4.91;94.46;101675.00;680259;28;1173;-54
2021/11/16 00:47:30;;;;;;;21.67;13.45;;;;;;;4.94;94.63;101675.13;681947;28;1403;-51
2021/11/16 00:47:50;;;;;;;20.83;13.60;;;;;;;4.95;94.62;101676.00;682572;28;1426;-53
2021/11/16 00:48:11;;;;;;;20.90;13.83;;;;;;;4.97;94.70;101676.03;680327;28;1355;-55
2021/11/16 00:48:31;;;;;;;20.48;13.85;;;;;;;4.98;94.73;101681.28;683406;28;1414;-53
2021/11/16 00:48:52;;;;;;;20.70;14.18;;;;;;;4.99;94.41;101679.59;683411;28;3622;-53
2021/11/16 00:49:12;;;;;;;21.53;14.07;;;;;;;5.00;94.64;101673.53;682773;28;4381;-51
2021/11/16 00:49:33;;;;;;;18.67;13.55;;;;;;;5.00;94.86;101679.63;683366;28;1361;-55
2021/11/16 00:49:53;;;;;;;21.53;14.33;;;;;;;5.00;94.16;101679.63;683737;28;1478;-51
2021/11/16 00:50:16;;;;;;;22.75;14.18;;;;;;;5.00;94.21;101682.22;683184;28;1371;-53
2021/11/16 00:50:40;;;;;;;20.80;13.95;;;;;;;5.02;94.13;101672.78;682957;28;1588;-55
2021/11/16 00:51:04;;;;;;;20.98;13.85;;;;;;;5.06;94.09;101685.00;682626;28;1172;-54
2021/11/16 00:51:25;;;;;;;19.70;13.30;;;;;;;5.05;94.03;101678.09;682444;28;1359;-53
2021/11/16 00:51:47;;;;;;;20.20;13.45;;;;;;;5.08;93.68;101678.19;680117;28;3368;-51
2021/11/16 00:52:08;;;;;;;20.45;13.60;;;;;;;5.16;93.09;101675.84;680587;29;1329;-55
2021/11/16 00:52:28;;;;;;;19.75;13.75;;;;;;;5.17;92.94;101682.78;678917;28;4346;-52
2021/11/16 00:52:49;;;;;;;22.20;13.70;;;;;;;5.17;93.01;101677.59;677512;29;1275;-51
2021/11/16 00:53:10;;;;;;;19.90;13.07;;;;;;;5.15;92.75;101679.28;679015;29;1279;-56
2021/11/16 00:53:33;;;;;;;18.42;12.70;;;;;;;5.15;93.14;101678.38;680965;29;1407;-56
2021/11/16 00:53:54;;;;;;;19.92;13.25;;;;;;;5.13;93.31;101678.31;680973;29;1394;-51
2021/11/16 00:54:14;;;;;;;19.73;13.48;;;;;;;5.14;93.37;101681.78;680143;29;1519;-52
2021/11/16 00:54:35;;;;;;;19.23;13.20;;;;;;;5.12;94.91;101679.16;680685;29;1846;-54
2021/11/16 00:54:55;;;;;;;20.65;13.65;;;;;;;5.10;94.90;101679.09;680105;29;3708;-55
2021/11/16 00:55:16;;;;;;;19.93;13.07;;;;;;;5.10;94.93;101675.63;679838;28;4566;-57
2021/11/16 00:55:37;;;;;;;19.10;12.55;;;;;;;5.09;94.77;101674.75;680281;29;1596;-52
2021/11/16 00:55:58;;;;;;;20.98;13.48;;;;;;;5.08;94.45;101679.88;677129;29;2033;-52
2021/11/16 00:56:19;;;;;;;20.85;14.05;;;;;;;5.06;94.50;101681.56;679549;28;1450;-51
2021/11/16 00:56:39;;;;;;;20.80;14.23;;;;;;;5.07;94.58;101681.59;679353;28;1389;-55
2021/11/16 00:57:00;;;;;;;21.42;14.18;;;;;;;5.06;94.52;101678.97;680782;28;1212;-56
2021/11/16 00:57:21;;;;;;;21.03;14.07;;;;;;;5.06;94.64;101679.81;682907;28;1219;-53
2021/11/16 00:57:42;;;;;;;22.23;15.02;;;;;;;5.05;94.50;101677.19;682427;28;3395;-52
2021/11/16 00:58:02;;;;;;;21.17;14.13;;;;;;;5.02;94.78;101672.78;685997;28;1442;-60
2021/11/16 00:58:23;;;;;;;21.53;14.30;;;;;;;5.03;94.76;101669.38;681159;28;4537;-52
2021/11/16 00:58:43;;;;;;;21.23;14.25;;;;;;;5.02;95.28;101669.31;680095;29;1264;-52
2021/11/16 00:59:04;;;;;;;21.87;14.40;;;;;;;5.02;95.53;101672.78;680624;28;1427;-54
2021/11/16 00:59:24;;;;;;;22.60;14.45;;;;;;;5.02;95.59;101669.31;682174;28;1319;-55
2021/11/16 00:59:44;;;;;;;22.67;14.37;;;;;;;5.02;95.16;101666.72;682665;28;1194;-54
2021/11/16 01:00:06;;;;;;;21.33;14.02;;;;;;;5.00;94.79;101666.66;682100;28;1394;-56
2021/11/16 01:00:27;;;;;;;20.50;13.85;;;;;;;5.01;94.83;101675.31;681028;28;3097;-54
2021/11/16 01:00:48;;;;;;;21.95;14.18;;;;;;;5.00;94.56;101668.38;682789;28;3650;-54
2021/11/16 01:01:09;;;;;;;22.42;13.90;;;;;;;5.00;95.06;101668.38;682666;28;1307;-54
2021/11/16 01:01:29;;;;;;;21.73;14.07;;;;;;;5.00;95.52;101670.94;682615;28;4580;-51
2021/11/16 01:01:49;;;;;;;21.35;13.85;;;;;;;5.00;94.94;101669.25;682427;28;1383;-53
2021/11/16 01:02:10;;;;;;;21.33;14.07;;;;;;;5.01;95.14;101673.63;683727;28;1339;-54
2021/11/16 01:02:30;;;;;;;21.15;14.23;;;;;;;5.02;94.82;101671.91;680035;29;1611;-51
2021/11/16 01:02:51;;;;;;;21.33;14.10;;;;;;;5.05;95.00;101672.00;680743;28;1315;-52
2021/11/16 01:03:13;;;;;;;20.97;13.57;;;;;;;5.05;95.02;101669.41;680065;29;1481;-53
2021/11/16 01:03:33;;;;;;;20.55;13.85;;;;;;;5.06;95.35;101668.59;679372;28;3558;-54
2021/11/16 01:03:54;;;;;;;20.67;14.30;;;;;;;5.06;95.19;101671.19;679889;29;1546;-53
2021/11/16 01:04:17;;;;;;;21.33;14.13;;;;;;;5.06;94.58;101666.88;679835;28;4347;-52
2021/11/16 01:04:39;;;;;;;21.13;13.57;;;;;;;5.07;94.19;101671.22;679631;28;1478;-54
2021/11/16 01:05:00;;;;;;;20.65;13.60;;;;;;;5.05;94.30;101670.31;680720;28;1232;-51
2021/11/16 01:05:20;;;;;;;20.45;14.00;;;;;;;5.04;94.71;101665.94;680462;28;1922;-51
2021/11/16 01:05:41;;;;;;;21.20;13.77;;;;;;;5.06;95.16;101669.47;679754;28;1667;-51
2021/11/16 01:06:03;;;;;;;20.42;13.15;;;;;;;5.06;95.42;101674.66;680596;28;1193;-52
2021/11/16 01:06:23;;;;;;;22.10;13.25;;;;;;;5.13;94.75;101674.88;679385;28;1921;-51
2021/11/16 01:06:44;;;;;;;21.58;12.77;;;;;;;5.12;94.26;101671.38;679715;29;3759;-51
2021/11/16 01:07:05;;;;;;;22.38;13.32;;;;;;;5.11;94.26;101674.81;680245;29;1539;-52
2021/11/16 01:07:26;;;;;;;22.02;13.73;;;;;;;5.11;94.12;101673.09;676935;28;4652;-56
2021/11/16 01:07:46;;;;;;;21.23;13.33;;;;;;;5.16;94.09;101680.16;677879;29;1347;-53
2021/11/16 01:08:08;;;;;;;20.17;12.93;;;;;;;5.20;93.66;101669.06;678306;29;1248;-52
2021/11/16 01:08:28;;;;;;;21.23;12.80;;;;;;;5.23;93.63;101674.34;678132;29;1375;-53
2021/11/16 01:08:49;;;;;;;22.50;12.87;;;;;;;5.22;93.33;101664.78;680076;29;1320;-53
2021/11/16 01:09:10;;;;;;;19.25;12.48;;;;;;;5.22;92.97;101670.88;680779;28;1229;-55
2021/11/16 01:09:31;;;;;;;18.58;12.07;;;;;;;5.23;92.72;101667.44;681109;29;3505;-52
2021/11/16 01:09:52;;;;;;;18.73;12.77;;;;;;;5.24;93.20;101669.19;680748;28;1279;-51
2021/11/16 01:10:15;;;;;;;19.85;12.57;;;;;;;5.22;93.72;101669.97;680845;28;4430;-52
2021/11/16 01:10:38;;;;;;;19.75;12.13;;;;;;;5.38;92.38;101667.06;680944;28;1362;-51
2021/11/16 01:10:58;;;;;;;19.83;12.90;;;;;;;5.61;90.65;101672.13;679640;29;1493;-51
2021/11/16 01:11:19;;;;;;;18.73;12.85;;;;;;;5.58;90.67;101665.13;680552;29;1252;-52
2021/11/16 01:11:39;;;;;;;17.17;12.20;;;;;;;5.62;89.61;101666.06;680460;28;1347;-53
2021/11/16 01:12:00;;;;;;;17.77;12.18;;;;;;;5.56;90.35;101669.34;680362;28;1198;-52
2021/11/16 01:12:21;;;;;;;18.37;12.07;;;;;;;5.54;90.09;101672.72;680154;28;3577;-51
2021/11/16 01:12:41;;;;;;;16.65;11.63;;;;;;;5.51;90.55;101673.53;680463;28;3434;-51
2021/11/16 01:13:03;;;;;;;16.63;11.80;;;;;;;5.46;90.00;101673.38;680498;28;1554;-51
2021/11/16 01:13:25;;;;;;;16.50;11.30;;;;;;;5.41;90.23;101674.97;676075;29;4620;-53
2021/11/16 01:13:45;;;;;;;16.55;11.60;;;;;;;5.38;90.57;101667.06;677642;29;1324;-53
2021/11/16 01:14:06;;;;;;;16.03;11.43;;;;;;;5.35;90.75;101668.69;677293;29;1431;-55
2021/11/16 01:14:26;;;;;;;18.35;12.40;;;;;;;5.32;91.04;101671.16;676882;29;1486;-52
2021/11/16 01:14:47;;;;;;;18.80;12.43;;;;;;;5.28;91.60;101670.19;677565;29;1184;-53
2021/11/16 01:15:10;;;;;;;17.55;12.07;;;;;;;5.24;91.60;101666.59;677407;29;1158;-52
2021/11/16 01:15:34;;;;;;;18.40;12.45;;;;;;;5.22;91.50;101673.47;680933;28;3208;-54
2021/11/16 01:15:55;;;;;;;18.20;12.05;;;;;;;5.19;91.63;101669.88;680506;28;1140;-53
2021/11/16 01:16:15;;;;;;;17.50;11.45;;;;;;;5.18;92.10;101669.00;679563;28;4416;-51
2021/11/16 01:16:36;;;;;;;15.82;11.35;;;;;;;5.17;92.19;101667.22;680829;28;1368;-52
2021/11/16 01:16:57;;;;;;;16.42;11.50;;;;;;;5.17;92.41;101671.56;680335;29;1506;-55
2021/11/16 01:17:18;;;;;;;16.73;11.32;;;;;;;5.16;92.48;101670.66;680052;29;3949;-53
2021/11/16 01:17:38;;;;;;;17.93;11.77;;;;;;;5.15;92.81;101673.19;681504;29;1586;-53
2021/11/16 01:17:59;;;;;;;20.97;12.30;;;;;;;5.14;92.75;101666.25;679307;29;1189;-56
2021/11/16 01:18:23;;;;;;;18.77;11.63;;;;;;;5.14;93.51;101666.25;677941;29;3109;-53
2021/11/16 01:18:44;;;;;;;17.95;11.60;;;;;;;5.12;92.86;101668.78;677856;29;2423;-54
2021/11/16 01:19:07;;;;;;;17.95;12.15;;;;;;;5.14;93.45;101671.41;678821;29;1364;-55
2021/11/16 01:19:27;;;;;;;19.88;12.95;;;;;;;5.16;93.06;101667.19;679227;28;4359;-52
2021/11/16 01:19:47;;;;;;;19.07;12.37;;;;;;;5.15;92.50;101663.72;681807;28;1304;-53
2021/11/16 01:20:10;;;;;;;20.23;13.17;;;;;;;5.14;92.68;101659.38;679843;28;1346;-51
2021/11/16 01:20:32;;;;;;;19.50;12.45;;;;;;;5.14;92.59;101667.13;680424;29;1474;-52
2021/11/16 01:20:53;;;;;;;17.85;12.48;;;;;;;5.15;92.48;101668.00;680137;29;1339;-55
2021/11/16 01:21:13;;;;;;;18.73;12.25;;;;;;;5.16;92.29;101667.19;679381;29;1859;-53
2021/11/16 01:21:35;;;;;;;20.27;12.50;;;;;;;5.20;92.02;101664.75;680558;28;4260;-51
2021/11/16 01:21:55;;;;;;;17.98;11.88;;;;;;;5.28;91.21;101659.81;682092;28;1201;-51
2021/11/16 01:22:16;;;;;;;18.10;11.43;;;;;;;5.33;90.74;101658.25;682932;28;4766;-53
2021/11/16 01:22:38;;;;;;;17.98;12.30;;;;;;;5.33;90.96;101668.63;680459;28;1398;-54
2021/11/16 01:23:00;;;;;;;18.10;11.68;;;;;;;5.31;91.25;101659.91;681322;28;1513;-53
2021/11/16 01:23:21;;;;;;;18.83;11.77;;;;;;;5.30;91.83;101663.31;681567;28;1208;-54
2021/11/16 01:23:42;;;;;;;19.60;12.30;;;;;;;5.27;91.63;101664.13;682269;28;1327;-53
2021/11/16 01:24:06;;;;;;;18.20;12.18;;;;;;;5.26;91.53;101664.06;681380;29;1203;-53
2021/11/16 01:24:26;;;;;;;17.67;12.52;;;;;;;5.24;91.93;101665.72;680662;28;3159;-53
2021/11/16 01:24:47;;;;;;;17.85;12.30;;;;;;;5.22;92.41;101665.69;681060;29;1302;-52
2021/11/16 01:25:09;;;;;;;18.23;12.40;;;;;;;5.20;92.46;101664.75;680698;29;1489;-53
2021/11/16 01:25:33;;;;;;;19.70;12.13;;;;;;;5.20;92.82;101661.28;683195;28;4586;-55
2021/11/16 01:25:55;;;;;;;17.83;11.95;;;;;;;5.19;93.35;101667.28;681288;29;1331;-53
2021/11/16 01:26:15;;;;;;;18.98;12.38;;;;;;;5.16;92.91;101664.59;679841;29;1356;-56
2021/11/16 01:26:36;;;;;;;18.67;12.27;;;;;;;5.16;93.27;101669.78;681123;29;1466;-56
2021/11/16 01:26:57;;;;;;;17.97;11.90;;;;;;;5.13;93.26;101662.78;680841;29;1429;-53
2021/11/16 01:27:19;;;;;;;18.27;11.82;;;;;;;5.10;93.33;101658.38;680462;28;3130;-54
2021/11/16 01:27:40;;;;;;;17.98;11.77;;;;;;;5.10;93.85;101663.53;678129;29;1860;-55
2021/11/16 01:28:07;;;;;;;19.52;12.45;;;;;;;5.10;93.67;101665.28;681055;29;1452;-52
2021/11/16 01:28:29;;;;;;;18.08;11.48;;;;;;;5.11;93.47;101660.13;680005;28;4767;-53
2021/11/16 01:28:49;;;;;;;18.75;11.90;;;;;;;5.10;93.28;101660.97;680785;29;1331;-51
2021/11/16 01:29:09;;;;;;;18.88;11.80;;;;;;;5.10;93.80;101668.72;681446;29;1421;-55
2021/11/16 01:29:30;;;;;;;18.23;11.93;;;;;;;5.08;93.65;101659.13;680529;28;1235;-52
2021/11/16 01:29:51;;;;;;;19.10;12.15;;;;;;;5.09;93.99;101663.50;680669;29;1339;-51
2021/11/16 01:30:16;;;;;;;18.10;12.25;;;;;;;5.08;93.65;101662.63;679369;28;3405;-54
2021/11/16 01:30:45;;;;;;;18.17;12.15;;;;;;;5.13;93.69;101664.50;680376;28;1462;-53
2021/11/16 01:31:07;;;;;;;18.08;12.18;;;;;;;5.10;92.98;101660.97;679416;28;1323;-53
2021/11/16 01:31:27;;;;;;;19.05;11.85;;;;;;;5.15;92.25;101662.81;679043;28;4374;-53
2021/11/16 01:31:51;;;;;;;18.98;11.63;;;;;;;5.14;92.03;101658.47;679658;28;1233;-55
2021/11/16 01:32:25;;;;;;;17.58;12.15;;;;;;;5.10;92.09;101660.97;680682;29;1249;-53
2021/11/16 01:32:51;;;;;;;16.65;11.40;;;;;;;5.11;92.47;101661.84;683310;28;1256;-52
2021/11/16 01:33:14;;;;;;;17.20;11.82;;;;;;;5.09;92.41;101659.19;682915;28;1871;-53
2021/11/16 01:33:43;;;;;;;17.27;12.05;;;;;;;5.08;91.92;101654.84;682696;28;1348;-54
2021/11/16 01:34:05;;;;;;;17.48;11.93;;;;;;;5.07;92.63;101657.41;683150;28;1273;-53
2021/11/16 01:34:29;;;;;;;16.90;11.48;;;;;;;5.05;92.60;101654.75;682220;28;4607;-55
2021/11/16 01:34:49;;;;;;;16.65;11.88;;;;;;;5.03;92.48;101653.81;681029;29;1311;-54
2021/11/16 01:35:10;;;;;;;16.63;11.73;;;;;;;5.05;92.76;101657.34;678983;29;1300;-56
2021/11/16 01:35:33;;;;;;;16.20;11.52;;;;;;;5.04;92.63;101655.59;679483;29;1296;-55
2021/11/16 01:35:54;;;;;;;17.25;11.77;;;;;;;5.02;92.71;101654.63;682334;28;1414;-55
2021/11/16 01:36:15;;;;;;;17.52;11.55;;;;;;;5.00;92.35;101650.22;680158;28;3687;-52
2021/11/16 01:36:36;;;;;;;16.70;11.23;;;;;;;5.02;92.75;101651.16;680621;28;1356;-52
2021/11/16 01:36:57;;;;;;;17.40;11.43;;;;;;;5.02;92.56;101657.22;680696;28;1414;-53
2021/11/16 01:37:17;;;;;;;18.27;11.55;;;;;;;5.03;92.90;101646.03;680490;28;4417;-54
2021/11/16 01:37:38;;;;;;;18.60;11.63;;;;;;;5.05;92.76;101651.28;681769;28;1205;-54
2021/11/16 01:37:59;;;;;;;16.60;11.55;;;;;;;5.02;92.62;101652.03;681793;28;1307;-53
2021/11/16 01:38:20;;;;;;;16.60;11.23;;;;;;;5.03;92.69;101650.34;683580;28;1267;-55
2021/11/16 01:38:42;;;;;;;17.13;11.20;;;;;;;5.02;92.51;101646.84;681374;28;1125;-53
2021/11/16 01:39:04;;;;;;;16.95;11.60;;;;;;;5.02;92.84;101646.00;680914;28;3469;-53
2021/11/16 01:39:26;;;;;;;17.52;11.68;;;;;;;5.01;92.86;101650.31;680890;28;3339;-62
2021/11/16 01:39:46;;;;;;;17.30;11.30;;;;;;;5.01;92.87;101652.91;680350;28;1373;-53
2021/11/16 01:40:11;;;;;;;17.13;11.40;;;;;;;5.00;93.10;101648.53;680174;28;1376;-52
2021/11/16 01:40:32;;;;;;;18.08;11.90;;;;;;;4.99;93.07;101649.34;679100;28;4445;-53
2021/11/16 01:40:53;;;;;;;17.05;11.30;;;;;;;4.98;92.82;101650.16;679658;29;1355;-53
2021/11/16 01:41:13;;;;;;;17.23;11.15;;;;;;;4.99;93.05;101651.94;680166;28;1117;-55
2021/11/16 01:41:34;;;;;;;16.70;11.33;;;;;;;4.99;93.24;101645.91;680482;28;1286;-53